createdAt,value
2023-02-09T00:00:14.680Z,26.17
2023-02-09T00:02:49.193Z,26.57
2023-02-09T00:05:19.572Z,25.20
2023-02-09T00:07:49.761Z,30.20
2023-02-09T00:10:20.447Z,24.73
2023-02-09T00:13:02.935Z,32.67
2023-02-09T00:15:33.049Z,28.03
2023-02-09T00:18:05.705Z,21.70
2023-02-09T00:20:35.864Z,23.43
2023-02-09T00:23:06.231Z,26.07
2023-02-09T00:25:36.897Z,27.30
2023-02-09T00:28:07.609Z,29.37
2023-02-09T00:30:37.665Z,31.63
2023-02-09T00:33:10.338Z,26.50
2023-02-09T00:35:43.503Z,26.30
2023-02-09T00:38:15.467Z,29.60
2023-02-09T00:40:46.097Z,27.47
2023-02-09T00:43:16.248Z,26.97
2023-02-09T00:45:46.295Z,25.13
2023-02-09T00:48:19.730Z,28.10
2023-02-09T00:50:49.710Z,32.23
2023-02-09T00:53:19.856Z,24.80
2023-02-09T00:55:50.701Z,26.60
2023-02-09T00:58:21.211Z,20.93
2023-02-09T01:00:53.601Z,26.37
2023-02-09T01:03:26.311Z,30.10
2023-02-09T01:05:57.217Z,24.50
2023-02-09T01:08:27.265Z,24.47
2023-02-09T01:10:57.296Z,29.47
2023-02-09T01:13:27.702Z,23.80
2023-02-09T01:15:59.268Z,28.00
2023-02-09T01:18:31.882Z,23.30
2023-02-09T01:21:01.919Z,19.93
2023-02-09T01:23:33.946Z,23.30
2023-02-09T01:26:05.443Z,20.87
2023-02-09T01:28:38.186Z,31.37
2023-02-09T01:31:20.219Z,23.40
2023-02-09T01:33:57.564Z,28.87
2023-02-09T01:36:30.965Z,21.70
2023-02-09T01:39:03.922Z,25.30
2023-02-09T01:41:35.395Z,21.60
2023-02-09T01:44:09.782Z,30.20
2023-02-09T01:46:40.994Z,25.93
2023-02-09T01:49:19.208Z,23.83
2023-02-09T01:51:59.785Z,23.20
2023-02-09T01:54:38.168Z,21.87
2023-02-09T01:57:19.173Z,19.30
2023-02-09T01:59:55.841Z,21.53
2023-02-09T02:02:27.012Z,16.00
2023-02-09T02:04:59.809Z,26.63
2023-02-09T02:07:38.288Z,30.20
2023-02-09T02:10:10.124Z,27.30
2023-02-09T02:12:41.915Z,28.00
2023-02-09T02:15:15.005Z,28.20
2023-02-09T02:18:07.664Z,25.80
2023-02-09T02:21:13.309Z,38.33
2023-02-09T02:23:57.225Z,28.33
2023-02-09T02:26:58.216Z,22.57
2023-02-09T02:30:14.233Z,27.17
2023-02-09T02:32:59.995Z,20.97
2023-02-09T02:35:39.299Z,27.43
2023-02-09T02:38:23.052Z,32.50
2023-02-09T02:41:06.134Z,26.10
2023-02-09T02:43:52.343Z,26.37
2023-02-09T02:46:30.878Z,32.73
2023-02-09T02:49:13.714Z,26.33
2023-02-09T02:51:49.304Z,32.10
2023-02-09T02:54:24.830Z,33.53
2023-02-09T02:57:01.868Z,30.30
2023-02-09T02:59:36.360Z,31.70
2023-02-09T03:02:20.130Z,28.60
2023-02-09T03:04:58.716Z,27.27
2023-02-09T03:07:28.936Z,30.30
2023-02-09T03:10:02.939Z,39.37
2023-02-09T03:12:48.192Z,31.20
2023-02-09T03:15:31.975Z,29.13
2023-02-09T03:18:14.909Z,30.50
2023-02-09T03:20:57.566Z,34.53
2023-02-09T03:23:35.977Z,29.43
2023-02-09T03:26:13.277Z,36.43
2023-02-09T03:28:48.207Z,29.90
2023-02-09T03:31:19.162Z,31.27
2023-02-09T03:33:49.286Z,27.63
2023-02-09T03:36:23.597Z,32.77
2023-02-09T03:38:53.506Z,32.30
2023-02-09T03:41:23.453Z,27.67
2023-02-09T03:44:05.934Z,30.23
2023-02-09T03:46:36.247Z,26.70
2023-02-09T03:49:06.461Z,28.03
2023-02-09T03:51:39.031Z,24.20
2023-02-09T03:54:09.110Z,27.00
2023-02-09T03:56:39.879Z,30.53
2023-02-09T03:59:09.938Z,30.50
2023-02-09T04:01:40.238Z,30.30
2023-02-09T04:04:10.222Z,28.93
2023-02-09T04:06:42.816Z,29.37
2023-02-09T04:09:14.303Z,25.90
2023-02-09T04:11:44.415Z,36.53
2023-02-09T04:14:14.421Z,33.60
2023-02-09T04:16:44.592Z,32.80
2023-02-09T04:19:14.653Z,30.37
2023-02-09T04:21:47.183Z,41.33
2023-02-09T04:24:17.447Z,33.10
2023-02-09T04:26:47.801Z,32.27
2023-02-09T04:29:17.732Z,33.43
2023-02-09T04:31:47.742Z,30.80
2023-02-09T04:34:17.817Z,36.63
2023-02-09T04:36:50.635Z,35.07
2023-02-09T04:39:20.791Z,30.07
2023-02-09T04:41:50.745Z,34.33
2023-02-09T04:44:20.723Z,30.43
2023-02-09T04:46:53.656Z,27.40
2023-02-09T04:49:23.668Z,32.23
2023-02-09T04:51:56.280Z,29.13
2023-02-09T04:54:26.212Z,27.27
2023-02-09T04:57:16.143Z,29.90
2023-02-09T04:59:44.992Z,31.67
2023-02-09T05:02:15.084Z,33.00
2023-02-09T05:04:45.048Z,42.13
2023-02-09T05:07:17.779Z,31.43
2023-02-09T05:09:47.748Z,27.20
2023-02-09T05:12:17.783Z,35.77
2023-02-09T05:14:48.861Z,32.20
2023-02-09T05:17:21.167Z,32.67
2023-02-09T05:19:51.180Z,29.87
2023-02-09T05:22:23.783Z,30.60
2023-02-09T05:24:53.884Z,35.97
2023-02-09T05:27:23.887Z,32.40
2023-02-09T05:29:53.916Z,24.60
2023-02-09T05:32:23.964Z,33.13
2023-02-09T05:34:54.050Z,31.33
2023-02-09T05:37:26.606Z,22.67
2023-02-09T05:39:57.339Z,31.30
2023-02-09T05:42:28.089Z,29.17
2023-02-09T05:44:58.037Z,32.53
2023-02-09T05:47:28.584Z,38.40
2023-02-09T05:49:59.460Z,39.63
2023-02-09T05:52:32.115Z,51.40
2023-02-09T05:55:02.037Z,27.97
2023-02-09T05:57:32.047Z,42.17
2023-02-09T06:00:02.042Z,34.63
2023-02-09T06:02:41.894Z,46.67
2023-02-09T06:05:11.966Z,45.57
2023-02-09T06:07:44.578Z,39.20
2023-02-09T06:10:14.503Z,36.53
2023-02-09T06:12:44.497Z,50.87
2023-02-09T06:15:16.301Z,47.27
2023-02-09T06:17:46.461Z,36.43
2023-02-09T06:20:16.588Z,41.93
2023-02-09T06:22:49.104Z,46.27
2023-02-09T06:25:19.404Z,40.17
2023-02-09T06:27:49.370Z,46.90
2023-02-09T06:30:19.456Z,37.97
2023-02-09T06:32:49.403Z,43.03
2023-02-09T06:35:19.640Z,48.70
2023-02-09T06:37:52.302Z,42.17
2023-02-09T06:40:22.572Z,52.30
2023-02-09T06:42:52.549Z,41.97
2023-02-09T06:45:22.523Z,44.67
2023-02-09T06:47:52.479Z,35.40
2023-02-09T06:50:23.142Z,35.33
2023-02-09T06:52:55.895Z,41.67
2023-02-09T06:55:25.907Z,47.27
2023-02-09T06:57:58.009Z,33.20
2023-02-09T07:00:28.983Z,45.80
2023-02-09T07:02:59.054Z,42.80
2023-02-09T07:05:31.577Z,42.07
2023-02-09T07:08:04.228Z,41.20
2023-02-09T07:10:34.237Z,52.87
2023-02-09T07:13:04.249Z,39.23
2023-02-09T07:15:34.221Z,41.90
2023-02-09T07:18:04.231Z,36.00
2023-02-09T07:20:34.172Z,35.60
2023-02-09T07:23:06.699Z,48.60
2023-02-09T07:25:37.674Z,44.30
2023-02-09T07:28:07.960Z,41.97
2023-02-09T07:30:41.097Z,34.67
2023-02-09T07:33:11.536Z,45.73
2023-02-09T07:35:43.654Z,47.50
2023-02-09T07:38:16.278Z,44.17
2023-02-09T07:40:47.138Z,50.13
2023-02-09T07:43:17.505Z,44.73
2023-02-09T07:45:47.738Z,52.63
2023-02-09T07:48:17.886Z,45.33
2023-02-09T07:50:51.893Z,58.87
2023-02-09T07:53:24.648Z,42.83
2023-02-09T07:55:54.661Z,44.33
2023-02-09T07:58:25.492Z,39.70
2023-02-09T08:00:55.937Z,53.83
2023-02-09T08:03:27.805Z,45.67
2023-02-09T08:06:04.582Z,50.87
2023-02-09T08:08:37.177Z,54.30
2023-02-09T08:11:07.664Z,42.73
2023-02-09T08:13:41.620Z,47.20
2023-02-09T08:16:17.666Z,45.97
2023-02-09T08:18:52.741Z,48.17
2023-02-09T08:21:24.152Z,44.93
2023-02-09T08:23:59.859Z,42.23
2023-02-09T08:26:29.975Z,52.57
2023-02-09T08:29:00.759Z,53.70
2023-02-09T08:31:30.843Z,43.40
2023-02-09T08:34:00.936Z,35.77
2023-02-09T08:36:30.947Z,42.33
2023-02-09T08:39:03.425Z,45.83
2023-02-09T08:41:33.394Z,50.33
2023-02-09T08:44:03.554Z,48.00
2023-02-09T08:46:33.861Z,40.47
2023-02-09T08:49:03.918Z,59.13
2023-02-09T08:51:33.958Z,42.83
2023-02-09T08:54:06.621Z,41.33
2023-02-09T08:56:36.537Z,38.57
2023-02-09T08:59:06.999Z,51.63
2023-02-09T09:01:39.038Z,56.77
2023-02-09T09:04:09.996Z,44.17
2023-02-09T09:06:40.225Z,42.83
2023-02-09T09:09:12.885Z,40.10
2023-02-09T09:11:43.002Z,50.40
2023-02-09T09:14:12.930Z,49.00
2023-02-09T09:16:43.094Z,43.90
2023-02-09T09:19:13.113Z,51.07
2023-02-09T09:21:43.137Z,44.83
2023-02-09T09:24:16.238Z,52.03
2023-02-09T09:26:46.286Z,45.00
2023-02-09T09:29:16.294Z,39.97
2023-02-09T09:31:46.255Z,42.67
2023-02-09T09:34:16.345Z,36.23
2023-02-09T09:36:46.354Z,42.07
2023-02-09T09:39:19.017Z,39.57
2023-02-09T09:41:51.750Z,36.00
2023-02-09T09:44:31.954Z,38.30
2023-02-09T09:47:09.157Z,38.87
2023-02-09T09:49:40.885Z,49.43
2023-02-09T09:52:19.300Z,38.30
2023-02-09T09:54:52.096Z,43.40
2023-02-09T09:57:27.691Z,46.10
2023-02-09T09:59:59.525Z,43.97
2023-02-09T10:02:33.513Z,50.73
2023-02-09T10:05:15.366Z,30.90
2023-02-09T10:07:59.365Z,42.87
2023-02-09T10:10:44.163Z,35.40
2023-02-09T10:13:24.555Z,38.30
2023-02-09T10:15:56.660Z,39.60
2023-02-09T10:18:28.552Z,50.10
2023-02-09T10:21:06.091Z,48.57
2023-02-09T10:23:43.685Z,46.00
2023-02-09T10:26:28.848Z,59.00
2023-02-09T10:29:02.102Z,44.90
2023-02-09T10:31:37.177Z,48.17
2023-02-09T10:34:17.068Z,46.23
2023-02-09T10:36:53.826Z,49.30
2023-02-09T10:39:30.312Z,51.10
2023-02-09T10:42:21.672Z,44.33
2023-02-09T10:44:55.837Z,43.17
2023-02-09T10:47:34.037Z,48.57
2023-02-09T10:50:17.215Z,39.53
2023-02-09T10:53:02.357Z,46.40
2023-02-09T10:55:41.585Z,38.63
2023-02-09T10:58:28.998Z,46.37
2023-02-09T11:01:18.521Z,37.87
2023-02-09T11:04:04.565Z,33.00
2023-02-09T11:06:46.729Z,47.57
2023-02-09T11:09:21.393Z,39.20
2023-02-09T11:11:51.352Z,39.70
2023-02-09T11:14:25.078Z,41.80
2023-02-09T11:17:24.552Z,37.27
2023-02-09T11:20:20.019Z,46.90
2023-02-09T11:23:36.037Z,46.00
2023-02-09T11:26:21.287Z,38.87
2023-02-09T11:29:00.374Z,42.80
2023-02-09T11:32:14.579Z,34.67
2023-02-09T11:35:04.216Z,38.73
2023-02-09T11:37:47.816Z,40.10
2023-02-09T11:40:31.778Z,41.30
2023-02-09T11:43:17.580Z,39.27
2023-02-09T11:45:51.317Z,50.63
2023-02-09T11:48:33.117Z,47.27
2023-02-09T11:51:10.643Z,38.77
2023-02-09T11:53:51.495Z,36.27
2023-02-09T11:56:25.130Z,37.33
2023-02-09T11:59:03.645Z,30.67
2023-02-09T12:01:46.036Z,46.77
2023-02-09T12:04:27.522Z,36.70
2023-02-09T12:07:02.106Z,47.70
2023-02-09T12:09:48.355Z,35.77
2023-02-09T12:12:28.358Z,41.93
2023-02-09T12:15:16.398Z,36.57
2023-02-09T12:17:53.468Z,40.93
2023-02-09T12:20:54.119Z,40.50
2023-02-09T12:23:34.675Z,29.67
2023-02-09T12:26:26.036Z,33.50
2023-02-09T12:29:04.518Z,35.97
2023-02-09T12:32:10.192Z,29.87
2023-02-09T12:34:44.912Z,31.50
2023-02-09T12:37:29.546Z,37.60
2023-02-09T12:40:26.578Z,31.07
2023-02-09T12:43:30.887Z,30.47
2023-02-09T12:46:47.562Z,32.10
2023-02-09T12:49:25.465Z,30.63
2023-02-09T12:52:18.240Z,36.90
2023-02-09T12:54:55.475Z,37.23
2023-02-09T12:57:55.846Z,34.57
2023-02-09T13:00:45.615Z,34.67
2023-02-09T13:03:22.856Z,33.73
2023-02-09T13:05:58.704Z,30.17
2023-02-09T13:08:50.613Z,30.07
2023-02-09T13:11:35.403Z,32.23
2023-02-09T13:14:10.457Z,33.07
2023-02-09T13:17:19.861Z,33.93
2023-02-09T13:20:07.499Z,34.23
2023-02-09T13:22:55.706Z,30.77
2023-02-09T13:25:37.339Z,31.10
2023-02-09T13:28:22.559Z,30.83
2023-02-09T13:30:52.669Z,30.93
2023-02-09T13:33:43.896Z,28.20
2023-02-09T13:36:32.741Z,30.00
2023-02-09T13:39:02.936Z,35.50
2023-02-09T13:41:40.658Z,35.83
2023-02-09T13:44:27.056Z,31.67
2023-02-09T13:47:00.984Z,28.77
2023-02-09T13:49:32.948Z,27.43
2023-02-09T13:52:15.664Z,30.33
2023-02-09T13:54:46.712Z,24.20
2023-02-09T13:57:35.189Z,33.20
2023-02-09T14:00:19.730Z,38.10
2023-02-09T14:02:54.600Z,30.50
2023-02-09T14:05:42.167Z,33.70
2023-02-09T14:08:15.963Z,34.30
2023-02-09T14:10:55.120Z,32.67
2023-02-09T14:13:31.917Z,32.10
2023-02-09T14:16:12.045Z,34.63
2023-02-09T14:18:50.340Z,36.63
2023-02-09T14:21:32.486Z,35.10
2023-02-09T14:24:21.252Z,29.17
2023-02-09T14:26:56.492Z,36.43
2023-02-09T14:29:31.194Z,34.90
2023-02-09T14:32:32.287Z,25.50
2023-02-09T14:35:19.369Z,32.67
2023-02-09T14:37:54.412Z,31.77
2023-02-09T14:40:34.714Z,26.37
2023-02-09T14:43:22.167Z,30.90
2023-02-09T14:46:03.197Z,36.27
2023-02-09T14:48:35.840Z,37.07
2023-02-09T14:51:17.400Z,32.80
2023-02-09T14:53:47.465Z,34.70
2023-02-09T14:56:26.549Z,28.80
2023-02-09T14:58:56.529Z,32.37
2023-02-09T15:01:26.510Z,30.90
2023-02-09T15:03:59.508Z,29.47
2023-02-09T15:06:33.207Z,29.10
2023-02-09T15:09:05.196Z,40.43
2023-02-09T15:11:47.932Z,35.43
2023-02-09T15:14:18.713Z,36.80
2023-02-09T15:16:48.681Z,33.67
2023-02-09T15:19:25.213Z,39.00
2023-02-09T15:22:06.476Z,34.63
2023-02-09T15:24:37.468Z,35.57
2023-02-09T15:27:07.758Z,40.60
2023-02-09T15:29:37.884Z,31.03
2023-02-09T15:32:17.754Z,37.90
2023-02-09T15:34:51.891Z,32.50
2023-02-09T15:37:28.251Z,40.17
2023-02-09T15:40:04.707Z,37.77
2023-02-09T15:42:47.221Z,35.67
2023-02-09T15:45:34.292Z,32.30
2023-02-09T15:48:04.290Z,39.37
2023-02-09T15:50:40.461Z,35.73
2023-02-09T15:53:15.423Z,39.97
2023-02-09T15:55:46.277Z,35.37
2023-02-09T15:58:19.891Z,35.30
2023-02-09T16:00:49.859Z,35.53
2023-02-09T16:03:23.630Z,36.97
2023-02-09T16:06:02.373Z,28.20
2023-02-09T16:08:37.509Z,37.07
2023-02-09T16:11:09.884Z,45.77
2023-02-09T16:13:39.909Z,31.27
2023-02-09T16:16:16.937Z,40.43
2023-02-09T16:18:48.286Z,44.40
2023-02-09T16:21:30.680Z,36.10
2023-02-09T16:24:06.404Z,39.20
2023-02-09T16:26:37.766Z,30.40
2023-02-09T16:29:13.620Z,39.93
2023-02-09T16:31:43.871Z,41.83
2023-02-09T16:34:15.573Z,36.63
2023-02-09T16:36:48.812Z,38.10
2023-02-09T16:39:21.655Z,37.77
2023-02-09T16:41:53.531Z,34.47
2023-02-09T16:44:26.501Z,44.30
2023-02-09T16:47:00.202Z,41.07
2023-02-09T16:49:37.923Z,31.50
2023-02-09T16:52:18.744Z,42.47
2023-02-09T16:54:52.551Z,38.00
2023-02-09T16:57:25.907Z,40.27
2023-02-09T16:59:56.999Z,47.27
2023-02-09T17:02:41.685Z,50.73
2023-02-09T17:05:22.346Z,52.17
2023-02-09T17:08:02.543Z,49.97
2023-02-09T17:10:35.835Z,49.30
2023-02-09T17:13:06.034Z,43.70
2023-02-09T17:15:45.455Z,51.37
2023-02-09T17:18:22.238Z,65.77
2023-02-09T17:20:57.081Z,50.50
2023-02-09T17:23:32.312Z,57.63
2023-02-09T17:26:03.415Z,48.63
2023-02-09T17:28:34.003Z,51.43
2023-02-09T17:31:06.191Z,57.60
2023-02-09T17:33:38.292Z,53.60
2023-02-09T17:36:27.597Z,71.07
2023-02-09T17:39:03.021Z,107.27
2023-02-09T17:41:38.296Z,103.17
2023-02-09T17:44:32.078Z,52.07
2023-02-09T17:47:07.850Z,68.70
2023-02-09T17:49:37.820Z,68.50
2023-02-09T17:52:08.338Z,95.67
2023-02-09T17:54:40.895Z,78.77
2023-02-09T17:57:15.563Z,90.47
2023-02-09T17:59:46.887Z,71.13
2023-02-09T18:02:20.612Z,69.97
2023-02-09T18:04:51.010Z,62.10
2023-02-09T18:07:21.706Z,57.43
2023-02-09T18:09:54.625Z,48.07
2023-02-09T18:12:28.207Z,38.90
2023-02-09T18:14:59.162Z,43.80
2023-02-09T18:17:30.241Z,45.97
2023-02-09T18:20:00.161Z,55.73
2023-02-09T18:22:30.361Z,55.10
2023-02-09T18:25:02.932Z,50.83
2023-02-09T18:27:32.932Z,62.87
2023-02-09T18:30:02.894Z,64.87
2023-02-09T18:32:32.895Z,69.27
2023-02-09T18:35:02.919Z,70.43
2023-02-09T18:37:32.929Z,69.97
2023-02-09T18:40:05.888Z,52.97
2023-02-09T18:42:35.881Z,67.43
2023-02-09T18:45:06.484Z,69.57
2023-02-09T18:47:37.335Z,71.50
2023-02-09T18:50:08.296Z,74.90
2023-02-09T18:52:45.753Z,75.47
2023-02-09T18:55:18.908Z,68.83
2023-02-09T18:57:49.421Z,66.83
2023-02-09T19:00:20.952Z,79.33
2023-02-09T19:02:53.409Z,78.17
2023-02-09T19:05:26.105Z,79.20
2023-02-09T19:07:56.763Z,77.57
2023-02-09T19:10:32.992Z,75.37
2023-02-09T19:13:04.699Z,66.73
2023-02-09T19:15:36.401Z,73.60
2023-02-09T19:18:06.722Z,95.70
2023-02-09T19:20:37.024Z,91.07
2023-02-09T19:23:08.561Z,83.43
2023-02-09T19:25:41.111Z,63.50
2023-02-09T19:28:11.433Z,82.93
2023-02-09T19:30:43.930Z,71.30
2023-02-09T19:33:15.919Z,88.30
2023-02-09T19:35:46.121Z,82.70
2023-02-09T19:38:16.270Z,74.07
2023-02-09T19:40:50.180Z,76.77
2023-02-09T19:43:21.084Z,76.57
2023-02-09T19:45:58.698Z,76.57
2023-02-09T19:48:28.729Z,54.27
2023-02-09T19:51:00.674Z,76.63
2023-02-09T19:53:31.569Z,73.80
2023-02-09T19:56:04.497Z,87.77
2023-02-09T19:58:34.691Z,83.93
2023-02-09T20:01:05.501Z,91.97
2023-02-09T20:03:35.427Z,88.77
2023-02-09T20:06:09.704Z,90.93
2023-02-09T20:08:40.964Z,63.83
2023-02-09T20:11:18.000Z,79.57
2023-02-09T20:13:53.211Z,82.53
2023-02-09T20:16:29.708Z,86.23
2023-02-09T20:18:59.905Z,79.20
2023-02-09T20:21:30.002Z,73.30
2023-02-09T20:24:00.668Z,71.73
2023-02-09T20:26:33.607Z,72.40
2023-02-09T20:29:07.452Z,73.93
2023-02-09T20:31:41.047Z,84.90
2023-02-09T20:34:15.900Z,86.03
2023-02-09T20:36:48.255Z,72.23
2023-02-09T20:39:19.863Z,69.30
2023-02-09T20:42:10.721Z,78.90
2023-02-09T20:44:53.559Z,75.87
2023-02-09T20:47:26.036Z,64.60
2023-02-09T20:50:00.298Z,88.53
2023-02-09T20:52:31.879Z,54.70
2023-02-09T20:55:02.172Z,62.93
2023-02-09T20:57:34.783Z,80.50
2023-02-09T21:00:04.945Z,71.17
2023-02-09T21:02:35.379Z,78.47
2023-02-09T21:05:06.031Z,58.10
2023-02-09T21:07:36.657Z,71.00
2023-02-09T21:10:07.128Z,76.47
2023-02-09T21:12:39.952Z,76.40
2023-02-09T21:15:11.247Z,83.40
2023-02-09T21:17:47.729Z,68.90
2023-02-09T21:20:18.752Z,65.03
2023-02-09T21:22:50.218Z,87.13
2023-02-09T21:25:21.819Z,77.63
2023-02-09T21:27:55.753Z,94.80
2023-02-09T21:30:26.026Z,75.67
2023-02-09T21:32:56.314Z,71.40
2023-02-09T21:35:26.584Z,76.73
2023-02-09T21:37:56.619Z,70.30
2023-02-09T21:40:26.983Z,57.37
2023-02-09T21:43:00.059Z,63.77
2023-02-09T21:45:30.213Z,55.93
2023-02-09T21:48:02.416Z,70.07
2023-02-09T21:50:32.536Z,71.57
2023-02-09T21:53:02.572Z,59.40
2023-02-09T21:55:33.180Z,93.30
2023-02-09T21:58:05.753Z,61.73
2023-02-09T22:00:35.802Z,74.90
2023-02-09T22:03:05.774Z,71.13
2023-02-09T22:05:35.728Z,53.63
2023-02-09T22:08:05.714Z,55.73
2023-02-09T22:10:35.763Z,66.07
2023-02-09T22:13:09.695Z,69.20
2023-02-09T22:15:43.376Z,67.00
2023-02-09T22:18:14.045Z,58.67
2023-02-09T22:20:46.990Z,57.37
2023-02-09T22:23:17.480Z,66.77
2023-02-09T22:25:47.592Z,69.73
2023-02-09T22:28:20.136Z,94.50
2023-02-09T22:30:50.214Z,68.40
2023-02-09T22:33:20.691Z,83.30
2023-02-09T22:35:51.028Z,97.63
2023-02-09T22:38:20.968Z,83.70
2023-02-09T22:40:50.912Z,91.70
2023-02-09T22:43:23.493Z,91.00
2023-02-09T22:45:58.331Z,78.40
2023-02-09T22:48:28.887Z,69.23
2023-02-09T22:50:58.937Z,71.13
2023-02-09T22:53:29.062Z,57.80
2023-02-09T22:55:59.087Z,65.90
2023-02-09T22:58:31.739Z,70.37
2023-02-09T23:01:01.751Z,68.30
2023-02-09T23:03:33.627Z,69.00
2023-02-09T23:06:04.746Z,56.80
2023-02-09T23:08:34.797Z,61.27
2023-02-09T23:11:05.626Z,66.60
2023-02-09T23:13:40.201Z,53.93
2023-02-09T23:16:14.400Z,66.93
2023-02-09T23:18:51.284Z,62.00
2023-02-09T23:21:23.108Z,69.17
2023-02-09T23:23:53.621Z,55.97
2023-02-09T23:26:24.400Z,64.80
2023-02-09T23:29:01.348Z,49.83
2023-02-09T23:31:32.022Z,45.23
2023-02-09T23:34:02.025Z,52.33
2023-02-09T23:36:36.524Z,70.40
2023-02-09T23:39:09.523Z,61.60
2023-02-09T23:41:39.549Z,61.93
2023-02-09T23:44:12.517Z,54.77
2023-02-09T23:46:42.891Z,67.93
2023-02-09T23:49:13.354Z,65.70
2023-02-09T23:51:43.371Z,56.50
2023-02-09T23:54:13.713Z,62.40
2023-02-09T23:56:46.211Z,63.60
2023-02-09T23:59:19.207Z,61.83
